Time;durP1;ratioP1;P1;durP2;ratioP2;P2;SDS_P1;SDS_P2;PMS_P1;PMS_P2;Temp;Humidity;BMP_temperature;BMP_pressure;BME280_temperature;BME280_humidity;BME280_pressure;Samples;Min_cycle;Max_cycle;Signal;HPM_P1;HPM_P2
2022/11/14 00:02:32;;;;;;;6.90;6.22;;;16.50;55.30;;;;;;4977054;28;20221;-70
2022/11/14 00:05:18;;;;;;;6.70;6.10;;;16.50;55.30;;;;;;4976713;28;20268;-70
2022/11/14 00:08:04;;;;;;;7.10;6.10;;;16.50;55.50;;;;;;4977320;28;20193;-71
2022/11/14 00:10:51;;;;;;;7.50;6.80;;;16.50;55.10;;;;;;4977211;28;20220;-71
2022/11/14 00:13:37;;;;;;;7.03;6.32;;;16.40;55.50;;;;;;4977138;28;20189;-70
2022/11/14 00:16:23;;;;;;;6.22;5.63;;;16.40;55.40;;;;;;4976758;28;20656;-70
2022/11/14 00:19:08;;;;;;;6.57;5.80;;;16.40;55.70;;;;;;4976984;28;20233;-70
2022/11/14 00:21:54;;;;;;;6.28;5.68;;;16.40;55.60;;;;;;4976655;28;20224;-70
2022/11/14 00:24:40;;;;;;;6.85;6.18;;;16.40;55.50;;;;;;4976861;28;20213;-70
2022/11/14 00:27:27;;;;;;;6.63;5.93;;;16.40;55.50;;;;;;4976531;28;20707;-70
2022/11/14 00:30:13;;;;;;;5.60;5.10;;;16.30;55.60;;;;;;4976555;28;20688;-71
2022/11/14 00:32:58;;;;;;;6.63;6.03;;;16.30;55.50;;;;;;4976551;28;20238;-71
2022/11/14 00:35:50;;;;;;;6.50;5.90;;;16.30;55.60;;;;;;4976506;28;20185;-71
2022/11/14 00:38:37;;;;;;;6.38;5.72;;;16.30;55.50;;;;;;4976263;28;20185;-71
2022/11/14 00:41:22;;;;;;;6.00;5.40;;;16.30;55.60;;;;;;4976178;28;20297;-70
2022/11/14 00:44:10;;;;;;;5.65;5.15;;;16.20;55.60;;;;;;4976473;28;20240;-70
2022/11/14 00:46:55;;;;;;;6.22;5.45;;;16.20;55.60;;;;;;4976634;28;20189;-69
2022/11/14 00:49:41;;;;;;;6.18;5.60;;;16.20;55.50;;;;;;4976288;28;20213;-70
2022/11/14 00:52:26;;;;;;;6.13;5.53;;;16.20;55.40;;;;;;4976319;28;20221;-70
2022/11/14 00:55:12;;;;;;;5.72;5.22;;;16.20;55.50;;;;;;4976090;28;20189;-70
2022/11/14 00:57:58;;;;;;;5.63;5.13;;;16.20;55.60;;;;;;4976309;28;20193;-70
2022/11/14 01:00:45;;;;;;;6.18;5.47;;;16.10;55.20;;;;;;4976356;28;20224;-70
2022/11/14 01:03:30;;;;;;;6.25;5.68;;;16.10;55.50;;;;;;4976098;28;20184;-70
2022/11/14 01:06:16;;;;;;;6.07;5.40;;;16.10;55.40;;;;;;4976453;28;20708;-70
2022/11/14 01:09:02;;;;;;;5.68;5.18;;;16.10;55.60;;;;;;4976058;28;20212;-70
2022/11/14 01:11:47;;;;;;;6.40;5.80;;;16.10;55.70;;;;;;4976465;28;20585;-70
2022/11/14 01:14:33;;;;;;;6.18;5.57;;;16.10;55.40;;;;;;4976048;28;20189;-70
2022/11/14 01:17:20;;;;;;;5.43;4.93;;;16.10;55.50;;;;;;4975257;28;20197;-70
2022/11/14 01:20:07;;;;;;;5.70;5.20;;;16.10;55.40;;;;;;4976165;28;20186;-70
2022/11/14 01:22:53;;;;;;;5.65;5.15;;;16.00;55.60;;;;;;4976208;28;20189;-70
2022/11/14 01:25:39;;;;;;;5.38;4.95;;;16.00;55.50;;;;;;4975837;28;20553;-70
2022/11/14 01:28:25;;;;;;;6.25;5.65;;;16.00;55.50;;;;;;4975918;28;20206;-69
2022/11/14 01:31:11;;;;;;;6.28;5.68;;;16.00;55.50;;;;;;4975730;28;20217;-69
2022/11/14 01:33:58;;;;;;;5.18;4.70;;;16.00;55.70;;;;;;4975902;28;20189;-70
2022/11/14 01:36:44;;;;;;;5.53;5.03;;;16.00;55.70;;;;;;4975852;28;20547;-70
2022/11/14 01:39:30;;;;;;;5.80;5.30;;;15.90;55.60;;;;;;4975515;28;20676;-70
2022/11/14 01:42:16;;;;;;;5.38;4.97;;;15.90;55.60;;;;;;4975723;28;20329;-70
2022/11/14 01:45:17;;;;;;;6.28;4.97;;;15.90;55.60;;;;;;4975514;28;20251;-70
2022/11/14 01:48:03;;;;;;;5.63;5.13;;;15.90;55.60;;;;;;4975430;28;20209;-70
2022/11/14 01:50:54;;;;;;;5.22;4.80;;;15.80;56.10;;;;;;4975533;28;20229;-70
2022/11/14 01:53:40;;;;;;;5.25;4.75;;;15.80;55.60;;;;;;4975371;28;20284;-70
2022/11/14 01:56:28;;;;;;;6.20;5.60;;;15.90;55.60;;;;;;4975193;28;20186;-70
2022/11/14 01:59:15;;;;;;;5.57;5.07;;;15.80;55.90;;;;;;4975570;28;20189;-71
2022/11/14 02:02:04;;;;;;;5.82;5.00;;;15.80;55.50;;;;;;4975139;28;20237;-71
2022/11/14 02:04:51;;;;;;;5.53;5.03;;;15.80;55.50;;;;;;4975692;28;20201;-71
2022/11/14 02:07:39;;;;;;;5.55;5.03;;;15.80;55.60;;;;;;4975215;28;20226;-70
2022/11/14 02:10:26;;;;;;;5.40;4.90;;;15.80;55.50;;;;;;4975068;28;20210;-71
2022/11/14 02:13:12;;;;;;;6.20;5.60;;;15.80;55.50;;;;;;4975356;28;20229;-70
2022/11/14 02:15:57;;;;;;;5.60;5.10;;;15.80;55.50;;;;;;4975189;28;20193;-70
2022/11/14 02:18:43;;;;;;;5.43;4.93;;;15.70;55.40;;;;;;4975618;28;20185;-70
2022/11/14 02:21:30;;;;;;;5.22;4.82;;;15.70;55.60;;;;;;4975011;28;20312;-70
2022/11/14 02:24:16;;;;;;;5.38;4.88;;;15.70;55.50;;;;;;4975188;28;20186;-70
2022/11/14 02:27:02;;;;;;;5.30;4.80;;;15.70;55.50;;;;;;4975382;28;20257;-70
2022/11/14 02:29:47;;;;;;;5.22;4.82;;;15.70;55.40;;;;;;4978792;28;20209;-70
2022/11/14 02:32:33;;;;;;;5.93;5.07;;;15.70;55.40;;;;;;4978856;28;20228;-70
2022/11/14 02:35:19;;;;;;;5.38;4.88;;;15.70;56.00;;;;;;4979475;28;20543;-70
2022/11/14 02:38:07;;;;;;;5.72;5.22;;;15.60;55.40;;;;;;4979542;28;20184;-71
2022/11/14 02:40:53;;;;;;;4.97;4.57;;;15.60;55.50;;;;;;4979035;28;20337;-70
2022/11/14 02:43:38;;;;;;;5.60;5.10;;;15.60;55.50;;;;;;4978957;28;20189;-70
2022/11/14 02:46:24;;;;;;;5.15;4.70;;;15.60;55.40;;;;;;4978414;28;20661;-70
2022/11/14 02:49:11;;;;;;;5.10;4.57;;;15.60;55.50;;;;;;4978925;28;20664;-70
2022/11/14 02:51:57;;;;;;;5.20;4.80;;;15.60;55.50;;;;;;4978658;28;20252;-70
2022/11/14 02:54:43;;;;;;;5.22;4.72;;;15.60;55.30;;;;;;4978867;28;20653;-70
2022/11/14 02:57:29;;;;;;;5.20;4.70;;;15.60;55.40;;;;;;4978798;28;20185;-70
2022/11/14 03:00:16;;;;;;;5.15;4.65;;;15.60;55.30;;;;;;4978691;28;20210;-70
2022/11/14 03:03:02;;;;;;;4.93;4.50;;;15.50;55.40;;;;;;4978719;28;20573;-70
2022/11/14 03:05:50;;;;;;;4.85;4.45;;;15.50;55.40;;;;;;4979124;28;20185;-70
2022/11/14 03:08:36;;;;;;;4.97;4.57;;;15.50;55.50;;;;;;4979201;28;20194;-70
2022/11/14 03:11:23;;;;;;;5.47;5.00;;;15.50;55.60;;;;;;4978669;28;20357;-70
2022/11/14 03:14:09;;;;;;;5.22;4.78;;;15.50;55.30;;;;;;4978539;28;20190;-70
2022/11/14 03:16:55;;;;;;;5.20;4.70;;;15.50;55.30;;;;;;4978384;28;20261;-70
2022/11/14 03:19:41;;;;;;;5.05;4.65;;;15.50;55.50;;;;;;4978142;28;20193;-70
2022/11/14 03:22:26;;;;;;;5.45;4.95;;;15.50;55.30;;;;;;4964208;28;20699;-70
2022/11/14 03:25:12;;;;;;;5.45;4.95;;;15.50;55.30;;;;;;4978109;28;20563;-70
2022/11/14 03:27:59;;;;;;;4.70;4.30;;;15.50;55.40;;;;;;4978423;28;20185;-70
2022/11/14 03:30:46;;;;;;;4.85;4.45;;;15.50;55.50;;;;;;4978524;28;20232;-70
2022/11/14 03:33:32;;;;;;;5.22;4.82;;;15.50;55.70;;;;;;4977819;28;20193;-70
2022/11/14 03:36:18;;;;;;;4.60;4.20;;;15.50;55.60;;;;;;4977995;28;20598;-70
2022/11/14 03:39:04;;;;;;;4.70;4.30;;;15.40;55.50;;;;;;4977024;28;20220;-70
2022/11/14 15:16:33;;;;;;;3.00;2.70;;;18.40;53.30;;;;;;1052129;23;20514;-85
2022/11/14 15:19:20;;;;;;;2.60;2.40;;;18.30;53.30;;;;;;4990742;23;20245;-68
2022/11/14 15:22:21;;;;;;;2.33;2.13;;;18.40;53.30;;;;;;4977998;28;20716;-68
2022/11/14 15:25:17;;;;;;;2.33;2.13;;;18.30;53.30;;;;;;4978271;28;20647;-68
2022/11/14 15:28:03;;;;;;;2.67;2.25;;;18.30;53.20;;;;;;4977843;28;20190;-68
2022/11/14 15:30:56;;;;;;;2.53;2.28;;;18.30;53.30;;;;;;4977478;28;20345;-68
2022/11/14 15:33:43;;;;;;;2.40;2.20;;;18.30;53.30;;;;;;4978417;28;20205;-67
2022/11/14 15:36:29;;;;;;;2.50;2.30;;;18.30;53.20;;;;;;4976604;28;20193;-67
2022/11/14 15:39:23;;;;;;;2.58;2.13;;;18.30;53.30;;;;;;4977811;28;20241;-67
2022/11/14 15:42:13;;;;;;;2.50;2.30;;;18.30;53.20;;;;;;4977553;28;20268;-69
2022/11/14 15:44:59;;;;;;;2.63;2.20;;;18.30;53.30;;;;;;4977817;28;20185;-67
2022/11/14 15:47:45;;;;;;;2.40;2.20;;;18.30;53.30;;;;;;4977499;28;20308;-67
2022/11/14 15:50:33;;;;;;;2.20;2.10;;;18.30;53.20;;;;;;4977168;28;20213;-67
2022/11/14 15:53:22;;;;;;;2.25;2.05;;;18.20;53.10;;;;;;4978042;28;20181;-67
2022/11/14 15:56:10;;;;;;;2.88;2.22;;;18.30;53.20;;;;;;4977329;28;20198;-67
2022/11/14 15:58:56;;;;;;;2.25;2.05;;;18.30;53.30;;;;;;4977164;28;20233;-67
2022/11/14 16:01:42;;;;;;;2.40;2.20;;;18.30;53.20;;;;;;4977297;28;20213;-67
2022/11/14 16:04:30;;;;;;;2.10;2.00;;;18.30;53.20;;;;;;4977071;28;20181;-67
2022/11/14 16:07:18;;;;;;;2.22;2.10;;;18.30;53.20;;;;;;4976963;28;20294;-67
2022/11/14 16:10:13;;;;;;;4.45;2.20;;;18.20;53.20;;;;;;4977090;28;20185;-67
2022/11/14 16:12:59;;;;;;;2.55;2.35;;;18.20;53.20;;;;;;4976667;28;20217;-67
2022/11/14 16:15:44;;;;;;;2.53;2.10;;;18.20;53.20;;;;;;4976788;28;20266;-67
2022/11/14 16:18:30;;;;;;;2.05;1.95;;;18.20;53.30;;;;;;4976672;28;20257;-67
2022/11/14 16:21:16;;;;;;;2.17;1.98;;;18.20;53.40;;;;;;4976737;28;20229;-67
2022/11/14 16:24:04;;;;;;;2.92;2.45;;;18.20;53.20;;;;;;4976876;28;20185;-67
2022/11/14 16:26:49;;;;;;;2.30;2.10;;;18.10;53.30;;;;;;4976936;28;20185;-67
2022/11/14 16:29:35;;;;;;;2.22;2.03;;;18.10;53.20;;;;;;4976851;28;20273;-67
2022/11/14 16:32:22;;;;;;;2.35;2.15;;;18.10;53.10;;;;;;4976870;28;20604;-67
2022/11/14 16:35:10;;;;;;;2.65;2.45;;;18.10;53.10;;;;;;4976553;28;20257;-67
2022/11/14 16:37:55;;;;;;;2.28;2.17;;;18.10;53.10;;;;;;4976647;28;20273;-67
2022/11/14 16:40:43;;;;;;;2.42;2.20;;;18.10;53.10;;;;;;4977287;28;20217;-67
2022/11/14 16:43:28;;;;;;;2.90;2.70;;;18.10;53.10;;;;;;4978667;28;20256;-67
2022/11/14 16:46:14;;;;;;;3.35;2.25;;;18.10;53.10;;;;;;4994006;28;20185;-68
2022/11/14 16:49:01;;;;;;;2.55;2.35;;;18.10;53.10;;;;;;4995690;28;20193;-68
2022/11/14 16:51:48;;;;;;;2.70;2.50;;;18.00;53.00;;;;;;4993856;28;20229;-68
2022/11/14 16:54:33;;;;;;;2.28;2.15;;;18.00;53.00;;;;;;4992279;28;20181;-68
2022/11/14 16:57:20;;;;;;;2.63;2.28;;;18.10;53.10;;;;;;4992148;28;20230;-68
2022/11/14 17:00:07;;;;;;;3.45;2.38;;;18.10;53.00;;;;;;4980160;28;20185;-68
2022/11/14 17:02:52;;;;;;;3.50;2.47;;;18.10;53.10;;;;;;4976477;28;20535;-68
2022/11/14 17:05:42;;;;;;;2.63;2.10;;;18.10;52.90;;;;;;4976217;28;20189;-68
2022/11/14 17:08:28;;;;;;;2.63;2.40;;;18.10;53.10;;;;;;4976235;28;20263;-67
2022/11/14 17:11:14;;;;;;;2.90;2.60;;;18.00;52.80;;;;;;4975995;28;20755;-67
2022/11/14 17:14:01;;;;;;;3.30;2.20;;;18.00;52.80;;;;;;4976472;28;20185;-67
2022/11/14 17:16:46;;;;;;;2.60;2.40;;;18.00;52.90;;;;;;4976560;28;20193;-67
2022/11/14 17:19:32;;;;;;;2.17;2.00;;;18.00;52.80;;;;;;4975812;28;20205;-67
2022/11/14 17:22:18;;;;;;;2.55;2.20;;;18.00;52.80;;;;;;4975833;28;20281;-67
2022/11/14 17:25:04;;;;;;;2.38;2.17;;;18.00;52.80;;;;;;4975717;28;20233;-67
2022/11/14 17:27:50;;;;;;;2.35;2.15;;;18.00;52.80;;;;;;4976111;28;20180;-67
2022/11/14 17:30:40;;;;;;;2.50;2.30;;;18.00;52.80;;;;;;4976007;28;20232;-67
2022/11/14 17:33:26;;;;;;;2.75;2.40;;;18.00;53.00;;;;;;4975661;28;20217;-67
2022/11/14 17:36:12;;;;;;;2.60;2.40;;;18.00;52.80;;;;;;4975476;28;20593;-67
2022/11/14 17:38:58;;;;;;;2.42;2.22;;;18.00;52.80;;;;;;4975307;28;20185;-67
2022/11/14 17:41:44;;;;;;;2.35;2.15;;;18.00;52.90;;;;;;4975181;28;20221;-67
2022/11/14 17:44:29;;;;;;;3.05;2.10;;;17.90;52.80;;;;;;4975672;28;20251;-67
2022/11/14 17:47:16;;;;;;;2.30;2.10;;;17.90;52.90;;;;;;4975345;28;20197;-67
2022/11/14 17:50:04;;;;;;;2.42;2.10;;;17.90;53.40;;;;;;4975332;28;20187;-67
2022/11/14 17:52:49;;;;;;;2.42;2.22;;;17.90;52.90;;;;;;4974917;28;20209;-67
2022/11/14 17:55:35;;;;;;;2.38;2.17;;;17.90;52.90;;;;;;4975313;28;20186;-67
2022/11/14 17:58:20;;;;;;;3.72;2.10;;;17.90;52.90;;;;;;4975025;28;20213;-67
2022/11/14 18:01:09;;;;;;;2.40;2.20;;;17.90;52.90;;;;;;4974951;28;20286;-67
2022/11/14 18:03:57;;;;;;;2.92;2.72;;;17.90;52.90;;;;;;4975255;28;20181;-67
2022/11/14 18:06:42;;;;;;;2.70;2.50;;;17.90;52.90;;;;;;4975166;28;20664;-67
2022/11/14 18:09:28;;;;;;;4.03;3.63;;;17.90;52.90;;;;;;4975404;28;20185;-68
2022/11/14 18:12:14;;;;;;;6.70;4.97;;;17.90;52.90;;;;;;4974929;28;20221;-67
2022/11/14 18:14:59;;;;;;;7.20;4.40;;;17.90;52.90;;;;;;4974934;28;20180;-67
2022/11/14 18:17:45;;;;;;;4.90;3.78;;;17.90;52.90;;;;;;4974959;28;20190;-67
2022/11/14 18:20:33;;;;;;;3.92;3.22;;;17.90;53.00;;;;;;4975006;28;20333;-67
2022/11/14 18:23:18;;;;;;;3.10;2.75;;;17.90;53.10;;;;;;4975080;28;20181;-67
2022/11/14 18:26:14;;;;;;;2.88;2.53;;;17.90;53.10;;;;;;4974948;28;20692;-67
2022/11/14 18:29:00;;;;;;;2.90;2.70;;;17.90;53.10;;;;;;4974807;28;20269;-67
2022/11/14 18:31:47;;;;;;;2.60;2.40;;;17.90;53.20;;;;;;4975117;28;20592;-67
2022/11/14 18:34:35;;;;;;;2.97;2.78;;;17.80;53.20;;;;;;4974955;28;20649;-67
2022/11/14 18:37:22;;;;;;;2.92;2.60;;;17.90;53.60;;;;;;4975260;28;20261;-67
2022/11/14 18:40:12;;;;;;;2.70;2.50;;;17.80;54.20;;;;;;4975079;28;20641;-67
2022/11/14 18:42:57;;;;;;;2.80;2.60;;;17.80;53.30;;;;;;4975202;28;20181;-69
2022/11/14 18:45:43;;;;;;;3.00;2.45;;;17.90;53.60;;;;;;4976726;28;20190;-69
2022/11/14 18:48:29;;;;;;;3.10;2.80;;;17.80;53.20;;;;;;4975983;28;20661;-69
2022/11/14 18:51:16;;;;;;;2.65;2.45;;;17.80;53.30;;;;;;4976828;28;20232;-69
2022/11/14 18:54:04;;;;;;;2.78;2.58;;;17.80;53.40;;;;;;4975404;28;20189;-69
2022/11/14 18:56:49;;;;;;;2.95;2.65;;;17.80;53.20;;;;;;4975426;28;20185;-69
2022/11/14 18:59:35;;;;;;;3.25;2.35;;;17.90;53.60;;;;;;4975382;28;20197;-69
2022/11/14 19:02:20;;;;;;;2.63;2.42;;;17.80;53.10;;;;;;4975461;28;20228;-69
2022/11/14 19:05:06;;;;;;;3.10;2.83;;;17.80;53.00;;;;;;4976656;28;20185;-69
2022/11/14 19:07:55;;;;;;;3.03;2.65;;;17.90;53.00;;;;;;4975295;28;20186;-69
2022/11/14 19:10:43;;;;;;;3.00;2.80;;;17.90;52.90;;;;;;4977261;28;20369;-69
2022/11/14 19:13:29;;;;;;;2.53;2.33;;;17.90;52.90;;;;;;4979163;28;20217;-69
2022/11/14 19:16:14;;;;;;;3.00;2.70;;;17.90;52.90;;;;;;4981530;28;20182;-69
2022/11/14 19:19:00;;;;;;;3.28;2.50;;;17.90;53.20;;;;;;4978865;28;20209;-69
2022/11/14 19:21:48;;;;;;;3.42;2.20;;;17.90;53.30;;;;;;4981095;28;20220;-68
2022/11/14 19:24:33;;;;;;;3.42;2.63;;;17.90;53.40;;;;;;4978033;28;20201;-68
2022/11/14 19:27:20;;;;;;;3.33;2.88;;;17.90;53.80;;;;;;4978262;28;20318;-68
2022/11/14 19:30:08;;;;;;;3.47;2.72;;;17.80;53.90;;;;;;4979176;28;20335;-68
2022/11/14 19:32:54;;;;;;;3.08;2.67;;;17.80;54.10;;;;;;4978946;28;20228;-68
2022/11/14 19:35:40;;;;;;;2.70;2.47;;;17.80;54.10;;;;;;4977940;28;20190;-68
2022/11/14 19:38:26;;;;;;;4.25;2.80;;;17.80;54.20;;;;;;4977838;28;20189;-68
2022/11/14 19:41:13;;;;;;;3.53;2.83;;;17.80;54.20;;;;;;4977860;28;20220;-68
2022/11/14 19:44:00;;;;;;;2.85;2.55;;;17.80;54.40;;;;;;4978055;28;20181;-68
2022/11/14 19:46:46;;;;;;;2.72;2.53;;;17.80;54.30;;;;;;4980026;28;20236;-68
2022/11/14 19:49:32;;;;;;;3.53;2.60;;;17.80;54.50;;;;;;4977352;28;20281;-68
2022/11/14 19:52:18;;;;;;;2.50;2.30;;;17.80;54.40;;;;;;4977329;28;20711;-68
2022/11/14 19:55:04;;;;;;;2.67;2.40;;;17.80;54.50;;;;;;4977496;28;20316;-68
2022/11/14 19:57:50;;;;;;;3.30;2.72;;;17.80;54.50;;;;;;4977253;28;20210;-68
2022/11/14 20:00:36;;;;;;;3.95;2.60;;;17.70;54.20;;;;;;4977369;28;20738;-68
2022/11/14 20:03:22;;;;;;;2.70;2.50;;;17.80;54.30;;;;;;4977752;28;20357;-68
2022/11/14 20:06:13;;;;;;;2.85;2.60;;;17.70;54.40;;;;;;4966090;28;20186;-68
2022/11/14 20:09:01;;;;;;;3.03;2.60;;;17.70;54.30;;;;;;4981545;28;20251;-68
2022/11/14 20:11:47;;;;;;;2.70;2.50;;;17.70;54.30;;;;;;4977343;28;20284;-68
2022/11/14 20:14:33;;;;;;;3.38;2.78;;;17.70;54.10;;;;;;4976800;28;20671;-69
2022/11/14 20:17:20;;;;;;;2.97;2.67;;;17.70;54.10;;;;;;4977320;28;20745;-70
2022/11/14 20:20:07;;;;;;;3.78;3.03;;;17.70;54.70;;;;;;4977039;28;20580;-69
2022/11/14 20:22:52;;;;;;;3.63;2.80;;;17.70;53.90;;;;;;4976909;28;20197;-70
2022/11/14 20:25:38;;;;;;;5.05;3.20;;;17.70;53.90;;;;;;4977231;28;20237;-70
2022/11/14 20:28:23;;;;;;;7.13;3.47;;;17.70;53.80;;;;;;4977246;28;20218;-69
2022/11/14 20:31:11;;;;;;;4.05;3.47;;;17.70;53.90;;;;;;4977445;28;20292;-69
2022/11/14 20:33:58;;;;;;;4.47;3.25;;;17.70;53.80;;;;;;4976630;28;20233;-70
2022/11/14 20:36:45;;;;;;;3.42;3.10;;;17.70;53.80;;;;;;4977302;28;20233;-69
2022/11/14 20:39:31;;;;;;;4.30;2.80;;;17.70;53.90;;;;;;4977088;28;20185;-69
2022/11/14 20:42:16;;;;;;;3.53;3.00;;;17.70;53.80;;;;;;4976810;28;20225;-69
2022/11/14 20:45:01;;;;;;;3.25;2.95;;;17.70;54.60;;;;;;4976870;28;20552;-69
2022/11/14 20:47:47;;;;;;;2.92;2.67;;;17.70;53.80;;;;;;4976602;28;20245;-69
2022/11/14 20:50:34;;;;;;;4.40;3.15;;;17.70;53.80;;;;;;4961972;28;20276;-69
2022/11/14 20:53:19;;;;;;;4.97;3.00;;;17.70;53.80;;;;;;4976222;28;20217;-70
2022/11/14 20:56:05;;;;;;;3.45;2.90;;;17.70;54.00;;;;;;4976569;28;20201;-69
2022/11/14 20:58:52;;;;;;;4.20;3.20;;;17.70;54.40;;;;;;4976323;28;20335;-69
2022/11/14 21:01:37;;;;;;;4.07;3.10;;;17.70;54.10;;;;;;4976035;28;20216;-69
2022/11/14 21:04:24;;;;;;;3.65;3.10;;;17.70;54.30;;;;;;4976405;28;20182;-69
2022/11/14 21:07:11;;;;;;;3.30;3.00;;;17.70;54.00;;;;;;4976167;28;20206;-69
2022/11/14 21:16:00;;;;;;;3.28;2.92;;;17.70;54.10;;;;;;4975977;28;20193;-69
2022/11/14 21:18:46;;;;;;;3.45;3.10;;;17.70;54.00;;;;;;4975706;28;20209;-69
2022/11/14 21:21:33;;;;;;;3.70;3.15;;;17.60;53.90;;;;;;4975799;28;20308;-69
2022/11/14 21:24:19;;;;;;;3.63;3.33;;;17.70;54.00;;;;;;4976114;28;20181;-69
2022/11/14 21:27:08;;;;;;;3.80;2.95;;;17.70;53.90;;;;;;4975668;28;20194;-71
2022/11/14 21:29:53;;;;;;;3.85;3.05;;;17.70;54.00;;;;;;4976258;28;20221;-70
2022/11/14 21:32:39;;;;;;;3.40;3.10;;;17.70;54.00;;;;;;4975292;28;20213;-70
2022/11/14 21:35:25;;;;;;;4.28;3.38;;;17.70;54.00;;;;;;4975682;28;20193;-70
2022/11/14 21:38:10;;;;;;;5.90;3.42;;;17.70;54.00;;;;;;4975726;28;20189;-71
2022/11/14 21:40:58;;;;;;;5.68;3.80;;;17.70;54.10;;;;;;4975662;28;20229;-70
2022/11/14 21:43:44;;;;;;;6.35;3.58;;;17.70;54.10;;;;;;4975877;28;20680;-70
2022/11/14 21:46:29;;;;;;;4.80;3.60;;;17.70;54.00;;;;;;4975881;28;20194;-70
2022/11/14 21:49:15;;;;;;;4.35;3.40;;;17.70;54.10;;;;;;4975633;28;20209;-70
2022/11/14 21:52:00;;;;;;;4.45;3.30;;;17.70;53.90;;;;;;4975539;28;20345;-70
2022/11/14 21:54:46;;;;;;;7.22;4.00;;;17.70;54.10;;;;;;4975687;28;20212;-70
2022/11/14 21:57:33;;;;;;;5.57;3.85;;;17.80;54.20;;;;;;4976230;28;20264;-70
2022/11/14 22:00:19;;;;;;;5.63;3.17;;;17.70;54.00;;;;;;4975705;28;20233;-70
2022/11/14 22:06:10;;;;;;;4.85;3.38;;;17.70;54.00;;;;;;4975764;28;20185;-70
2022/11/14 22:08:55;;;;;;;4.13;3.67;;;17.80;54.70;;;;;;4976950;28;20185;-70
2022/11/14 22:11:41;;;;;;;4.18;3.13;;;17.80;58.70;;;;;;4976012;28;20303;-69
2022/11/14 22:14:29;;;;;;;4.18;3.20;;;17.80;58.20;;;;;;4977143;28;20272;-70
2022/11/14 22:17:14;;;;;;;4.68;2.92;;;17.70;57.70;;;;;;4979605;28;20185;-70
2022/11/14 22:20:00;;;;;;;5.70;3.60;;;17.70;57.60;;;;;;4976171;28;20212;-70
2022/11/14 22:22:45;;;;;;;4.80;3.67;;;17.60;57.50;;;;;;4976032;28;20193;-70
2022/11/14 22:25:31;;;;;;;6.40;4.70;;;17.60;57.70;;;;;;4975101;28;20552;-70
2022/11/14 22:28:17;;;;;;;5.43;4.47;;;17.60;57.50;;;;;;4974983;28;20276;-69
2022/11/14 22:31:05;;;;;;;4.60;3.55;;;17.50;57.10;;;;;;4975145;28;20233;-70
2022/11/14 22:33:51;;;;;;;3.15;2.85;;;17.50;57.10;;;;;;4975146;28;20213;-70
2022/11/14 22:36:36;;;;;;;3.83;3.42;;;17.50;57.10;;;;;;4975313;28;20193;-70
2022/11/14 22:39:22;;;;;;;3.90;2.97;;;17.50;56.50;;;;;;4975090;28;20265;-70
2022/11/14 22:42:08;;;;;;;3.72;3.00;;;17.50;56.70;;;;;;4975014;28;20224;-70
2022/11/14 22:44:53;;;;;;;3.90;3.50;;;17.50;56.20;;;;;;4976500;28;20210;-70
2022/11/14 22:47:40;;;;;;;3.67;3.10;;;17.50;56.20;;;;;;4978509;28;20190;-70
2022/11/14 22:50:26;;;;;;;5.10;3.00;;;17.40;55.80;;;;;;4978848;28;20233;-70
2022/11/14 22:53:11;;;;;;;4.28;3.25;;;17.50;55.60;;;;;;4978464;28;20210;-70
2022/11/14 22:55:57;;;;;;;3.63;3.30;;;17.40;55.40;;;;;;4978348;28;20237;-70
2022/11/14 22:58:43;;;;;;;3.72;2.88;;;17.40;55.30;;;;;;4978663;28;20186;-70
2022/11/14 23:01:30;;;;;;;4.38;3.47;;;17.40;55.30;;;;;;4978510;28;20768;-69
2022/11/14 23:04:17;;;;;;;4.40;3.20;;;17.40;55.30;;;;;;4978700;28;20548;-69
2022/11/14 23:07:03;;;;;;;3.90;3.10;;;17.50;55.30;;;;;;4978263;28;20297;-69
2022/11/14 23:09:49;;;;;;;3.67;3.15;;;17.40;55.20;;;;;;4978917;28;20268;-70
2022/11/14 23:12:35;;;;;;;3.78;2.90;;;17.40;55.30;;;;;;4978422;28;20257;-70
2022/11/14 23:15:21;;;;;;;4.45;3.00;;;17.40;55.30;;;;;;4978303;28;20653;-70
2022/11/14 23:18:07;;;;;;;3.10;2.80;;;17.40;55.20;;;;;;4978726;28;20185;-70
2022/11/14 23:20:54;;;;;;;4.30;2.90;;;17.40;55.40;;;;;;4978092;28;20353;-70
2022/11/14 23:23:39;;;;;;;3.30;3.00;;;17.30;55.20;;;;;;4978084;28;20316;-69
2022/11/14 23:26:25;;;;;;;4.30;3.10;;;17.30;55.30;;;;;;4977891;28;20237;-69
2022/11/14 23:29:13;;;;;;;3.00;2.70;;;17.30;55.20;;;;;;4977765;28;20652;-69
2022/11/14 23:31:59;;;;;;;3.60;2.83;;;17.40;55.40;;;;;;4977661;28;20280;-69
2022/11/14 23:34:45;;;;;;;3.53;3.17;;;17.30;55.40;;;;;;4977551;28;20209;-69
2022/11/14 23:37:32;;;;;;;4.05;3.05;;;17.30;55.40;;;;;;4977607;28;20321;-69
2022/11/14 23:40:19;;;;;;;3.08;2.78;;;17.30;55.40;;;;;;4977446;28;20189;-69
2022/11/14 23:43:05;;;;;;;3.53;3.00;;;17.30;55.30;;;;;;4977510;28;20185;-69
2022/11/14 23:45:51;;;;;;;4.45;3.00;;;17.30;55.40;;;;;;4977763;28;20205;-69
2022/11/14 23:48:36;;;;;;;2.97;2.60;;;17.20;55.40;;;;;;4977832;28;20550;-69
2022/11/14 23:51:22;;;;;;;3.80;2.95;;;17.20;55.50;;;;;;4962769;28;20300;-69
2022/11/14 23:54:09;;;;;;;3.20;2.88;;;17.20;55.60;;;;;;4977379;28;20796;-69
2022/11/14 23:56:56;;;;;;;3.22;2.80;;;17.20;55.70;;;;;;4976613;28;20186;-69
2022/11/14 23:59:42;;;;;;;3.22;2.83;;;17.20;55.60;;;;;;4977524;28;20245;-69
